createdAt,value
2023-04-16T00:01:07.165Z,8.88
2023-04-16T00:03:35.317Z,8.88
2023-04-16T00:06:03.300Z,8.87
2023-04-16T00:08:31.454Z,8.85
2023-04-16T00:10:59.245Z,8.85
2023-04-16T00:13:28.109Z,8.86
2023-04-16T00:15:55.900Z,8.87
2023-04-16T00:18:23.657Z,8.89
2023-04-16T00:20:51.320Z,8.88
2023-04-16T00:23:19.087Z,8.89
2023-04-16T00:25:46.749Z,8.92
2023-04-16T00:28:14.541Z,8.94
2023-04-16T00:30:42.309Z,8.94
2023-04-16T00:33:10.246Z,8.93
2023-04-16T00:35:38.005Z,8.99
2023-04-16T00:38:05.665Z,9.01
2023-04-16T00:40:33.330Z,9.00
2023-04-16T00:43:01.000Z,9.03
2023-04-16T00:45:28.653Z,9.04
2023-04-16T00:47:57.138Z,9.06
2023-04-16T00:50:26.023Z,9.05
2023-04-16T00:52:53.684Z,9.03
2023-04-16T00:55:21.657Z,9.03
2023-04-16T00:57:49.321Z,9.02
2023-04-16T01:00:16.974Z,8.99
2023-04-16T01:02:44.743Z,8.97
2023-04-16T01:05:12.708Z,8.96
2023-04-16T01:07:40.479Z,8.93
2023-04-16T01:10:08.136Z,8.91
2023-04-16T01:12:36.007Z,8.87
2023-04-16T01:15:03.670Z,8.84
2023-04-16T01:17:31.367Z,8.82
2023-04-16T01:19:59.302Z,8.80
2023-04-16T01:22:27.062Z,8.78
2023-04-16T01:24:54.700Z,8.75
2023-04-16T01:27:22.388Z,8.79
2023-04-16T01:29:50.061Z,8.78
2023-04-16T01:32:17.914Z,8.76
2023-04-16T01:34:45.683Z,8.73
2023-04-16T01:37:13.454Z,8.70
2023-04-16T01:39:41.241Z,8.64
2023-04-16T01:42:08.978Z,8.57
2023-04-16T01:44:36.792Z,8.52
2023-04-16T01:47:04.698Z,8.53
2023-04-16T01:49:32.469Z,8.50
2023-04-16T01:52:00.234Z,8.45
2023-04-16T01:54:27.997Z,8.37
2023-04-16T01:56:55.879Z,8.26
2023-04-16T01:59:23.632Z,8.16
2023-04-16T02:01:51.646Z,8.06
2023-04-16T02:04:19.470Z,7.98
2023-04-16T02:06:47.132Z,7.96
2023-04-16T02:09:14.889Z,8.00
2023-04-16T02:11:42.553Z,8.04
2023-04-16T02:14:10.218Z,8.06
2023-04-16T02:16:38.116Z,8.09
2023-04-16T02:19:05.941Z,8.14
2023-04-16T02:21:34.115Z,8.16
2023-04-16T02:24:01.875Z,8.14
2023-04-16T02:26:29.949Z,8.11
2023-04-16T02:28:57.609Z,8.04
2023-04-16T02:31:25.301Z,8.04
2023-04-16T02:33:52.958Z,8.05
2023-04-16T02:36:20.770Z,8.04
2023-04-16T02:38:48.669Z,8.04
2023-04-16T02:41:16.427Z,8.04
2023-04-16T02:43:44.296Z,8.02
2023-04-16T02:46:12.087Z,7.99
2023-04-16T02:48:39.828Z,7.99
2023-04-16T02:51:07.497Z,8.05
2023-04-16T02:53:35.254Z,8.08
2023-04-16T02:56:03.019Z,8.06
2023-04-16T02:58:30.792Z,8.06
2023-04-16T03:00:58.591Z,8.06
2023-04-16T03:03:26.351Z,8.04
2023-04-16T03:05:54.179Z,8.01
2023-04-16T03:08:21.847Z,7.98
2023-04-16T03:10:49.599Z,7.96
2023-04-16T03:13:17.365Z,7.92
2023-04-16T03:15:45.003Z,7.91
2023-04-16T03:18:12.790Z,7.90
2023-04-16T03:20:40.758Z,7.88
2023-04-16T03:23:08.425Z,7.87
2023-04-16T03:25:36.803Z,7.86
2023-04-16T03:28:05.282Z,7.84
2023-04-16T03:30:33.046Z,7.84
2023-04-16T03:33:01.467Z,7.89
2023-04-16T03:35:29.396Z,7.91
2023-04-16T03:37:57.158Z,7.91
2023-04-16T03:40:24.823Z,7.91
2023-04-16T03:42:52.481Z,7.92
2023-04-16T03:45:20.245Z,7.91
2023-04-16T03:47:52.852Z,7.90
2023-04-16T03:50:20.791Z,7.86
2023-04-16T03:52:49.579Z,7.84
2023-04-16T03:55:17.344Z,7.81
2023-04-16T03:57:45.218Z,7.77
2023-04-16T04:00:12.987Z,7.76
2023-04-16T04:02:40.764Z,7.75
2023-04-16T04:05:08.716Z,7.74
2023-04-16T04:07:36.575Z,7.73
2023-04-16T04:10:04.293Z,7.72
2023-04-16T04:12:32.100Z,7.72
2023-04-16T04:14:59.869Z,7.78
2023-04-16T04:17:27.659Z,7.79
2023-04-16T04:22:28.177Z,7.82
2023-04-16T04:24:55.844Z,7.85
2023-04-16T04:27:23.606Z,7.88
2023-04-16T04:29:51.260Z,7.89
2023-04-16T04:32:19.073Z,7.92
2023-04-16T04:34:46.796Z,7.93
2023-04-16T04:37:14.459Z,7.93
2023-04-16T04:39:42.218Z,7.94
2023-04-16T04:42:09.881Z,7.95
2023-04-16T04:44:37.573Z,7.95
2023-04-16T04:47:05.303Z,7.95
2023-04-16T04:49:32.921Z,7.96
2023-04-16T04:52:01.960Z,7.99
2023-04-16T04:54:29.621Z,8.09
2023-04-16T04:56:57.384Z,8.13
2023-04-16T04:59:25.154Z,8.14
2023-04-16T05:01:52.840Z,8.16
2023-04-16T05:04:20.630Z,8.21
2023-04-16T05:06:48.336Z,8.26
2023-04-16T05:09:16.308Z,8.29
2023-04-16T05:11:43.972Z,8.33
2023-04-16T05:14:11.632Z,8.37
2023-04-16T05:16:39.348Z,8.39
2023-04-16T05:19:07.318Z,8.43
2023-04-16T05:21:35.133Z,8.46
2023-04-16T05:24:02.789Z,8.47
2023-04-16T05:26:30.662Z,8.47
2023-04-16T05:28:58.422Z,8.48
2023-04-16T05:31:26.227Z,8.47
2023-04-16T05:33:54.054Z,8.49
2023-04-16T05:36:21.817Z,8.58
2023-04-16T05:38:49.478Z,8.65
2023-04-16T05:41:17.138Z,8.69
2023-04-16T05:43:44.903Z,8.75
2023-04-16T05:46:12.599Z,8.83
2023-04-16T05:48:40.348Z,8.89
2023-04-16T05:51:07.990Z,8.95
2023-04-16T05:53:35.754Z,8.99
2023-04-16T05:56:03.516Z,9.01
2023-04-16T05:58:31.175Z,9.02
2023-04-16T06:00:58.850Z,9.04
2023-04-16T06:03:26.641Z,9.06
2023-04-16T06:05:54.558Z,9.11
2023-04-16T06:08:22.544Z,9.14
2023-04-16T06:10:50.203Z,9.22
2023-04-16T06:13:18.176Z,9.26
2023-04-16T06:15:45.880Z,9.30
2023-04-16T06:18:13.687Z,9.31
2023-04-16T06:20:41.467Z,9.32
2023-04-16T06:23:09.129Z,9.37
2023-04-16T06:25:36.789Z,9.43
2023-04-16T06:28:04.453Z,9.49
2023-04-16T06:30:32.115Z,9.54
2023-04-16T06:32:59.967Z,9.57
2023-04-16T06:35:27.845Z,9.61
2023-04-16T06:37:55.814Z,9.63
2023-04-16T06:40:23.480Z,9.67
2023-04-16T06:42:51.254Z,9.77
2023-04-16T06:45:19.002Z,9.84
2023-04-16T06:47:48.276Z,9.88
2023-04-16T06:50:16.064Z,9.93
2023-04-16T06:52:43.831Z,9.99
2023-04-16T06:55:11.491Z,10.05
2023-04-16T06:57:40.905Z,10.10
2023-04-16T07:00:08.660Z,10.13
2023-04-16T07:02:36.578Z,10.19
2023-04-16T07:05:04.829Z,10.25
2023-04-16T07:07:32.581Z,10.27
2023-04-16T07:10:00.573Z,10.29
2023-04-16T07:12:28.306Z,10.33
2023-04-16T07:14:55.960Z,10.35
2023-04-16T07:17:23.625Z,10.38
2023-04-16T07:19:51.288Z,10.45
2023-04-16T07:22:19.153Z,10.52
2023-04-16T07:24:46.819Z,10.56
2023-04-16T07:27:14.475Z,10.61
2023-04-16T07:29:42.236Z,10.64
2023-04-16T07:32:10.032Z,10.69
2023-04-16T07:34:38.391Z,10.75
2023-04-16T07:37:06.359Z,10.79
2023-04-16T07:39:34.012Z,10.84
2023-04-16T07:42:02.302Z,10.87
2023-04-16T07:44:29.958Z,10.92
2023-04-16T07:46:57.641Z,10.98
2023-04-16T07:49:25.378Z,11.01
2023-04-16T07:51:53.039Z,11.03
2023-04-16T07:54:21.067Z,11.06
2023-04-16T07:56:48.772Z,11.09
2023-04-16T07:59:22.915Z,11.14
2023-04-16T08:01:52.006Z,11.19
2023-04-16T08:04:25.527Z,11.28
2023-04-16T08:06:53.965Z,11.37
2023-04-16T08:09:21.825Z,11.40
2023-04-16T08:11:50.112Z,11.48
2023-04-16T08:14:17.993Z,11.56
2023-04-16T08:16:45.632Z,11.61
2023-04-16T08:19:13.485Z,11.66
2023-04-16T08:21:41.231Z,11.71
2023-04-16T08:24:08.929Z,11.75
2023-04-16T08:26:36.687Z,11.80
2023-04-16T08:29:04.354Z,11.81
2023-04-16T08:31:32.100Z,11.84
2023-04-16T08:34:02.101Z,11.89
2023-04-16T08:36:29.799Z,11.94
2023-04-16T08:38:57.562Z,11.99
2023-04-16T08:41:25.533Z,12.04
2023-04-16T08:43:53.187Z,12.06
2023-04-16T08:46:20.962Z,12.08
2023-04-16T08:48:48.715Z,12.14
2023-04-16T08:51:16.479Z,12.19
2023-04-16T08:53:44.146Z,12.25
2023-04-16T08:56:11.904Z,12.32
2023-04-16T08:58:39.593Z,12.40
2023-04-16T09:01:07.329Z,12.49
2023-04-16T09:03:36.526Z,12.55
2023-04-16T09:06:04.652Z,12.62
2023-04-16T09:08:32.463Z,12.68
2023-04-16T09:11:00.146Z,12.76
2023-04-16T09:13:27.891Z,12.84
2023-04-16T09:15:57.397Z,12.93
2023-04-16T09:18:25.160Z,13.03
2023-04-16T09:20:52.925Z,13.11
2023-04-16T09:23:20.690Z,13.23
2023-04-16T09:25:48.355Z,13.34
2023-04-16T09:28:16.116Z,13.42
2023-04-16T09:30:43.797Z,13.48
2023-04-16T09:33:11.541Z,13.54
2023-04-16T09:35:39.209Z,13.57
2023-04-16T09:38:06.972Z,13.52
2023-04-16T09:40:34.629Z,13.56
2023-04-16T09:43:02.323Z,13.65
2023-04-16T09:45:30.216Z,13.77
2023-04-16T09:47:57.994Z,13.85
2023-04-16T09:50:25.788Z,13.96
2023-04-16T09:52:53.561Z,13.98
2023-04-16T09:55:21.318Z,13.92
2023-04-16T09:57:48.987Z,13.86
2023-04-16T10:00:16.745Z,13.77
2023-04-16T10:02:44.588Z,13.72
2023-04-16T10:05:12.684Z,13.68
2023-04-16T10:07:40.655Z,13.66
2023-04-16T10:10:08.316Z,13.63
2023-04-16T10:12:36.088Z,13.72
2023-04-16T10:15:04.153Z,13.85
2023-04-16T10:17:31.837Z,13.90
2023-04-16T10:20:00.107Z,13.86
2023-04-16T10:22:28.058Z,13.77
2023-04-16T10:24:55.816Z,13.77
2023-04-16T10:27:23.593Z,13.76
2023-04-16T10:29:51.346Z,13.78
2023-04-16T10:32:21.092Z,13.82
2023-04-16T10:34:48.924Z,13.91
2023-04-16T10:37:18.329Z,13.96
2023-04-16T10:39:46.302Z,13.88
2023-04-16T10:42:14.055Z,13.86
2023-04-16T10:44:44.297Z,13.90
2023-04-16T10:47:13.186Z,13.93
2023-04-16T10:49:41.237Z,13.97
2023-04-16T10:52:09.105Z,14.14
2023-04-16T10:54:41.588Z,14.37
2023-04-16T10:57:09.387Z,14.52
2023-04-16T10:59:37.184Z,14.65
2023-04-16T11:02:04.938Z,14.75
2023-04-16T11:04:32.826Z,14.74
2023-04-16T11:07:00.708Z,14.68
2023-04-16T11:09:28.381Z,14.69
2023-04-16T11:11:56.236Z,14.81
2023-04-16T11:14:23.896Z,14.88
2023-04-16T11:16:51.568Z,14.90
2023-04-16T11:19:19.221Z,14.95
2023-04-16T11:21:47.082Z,15.10
2023-04-16T11:24:14.750Z,15.34
2023-04-16T11:26:42.419Z,15.48
2023-04-16T11:29:10.242Z,15.59
2023-04-16T11:31:38.308Z,15.73
2023-04-16T11:34:08.597Z,15.89
2023-04-16T11:36:36.331Z,16.06
2023-04-16T11:39:03.990Z,16.27
2023-04-16T11:41:31.656Z,16.46
2023-04-16T11:43:59.317Z,16.59
2023-04-16T11:46:27.940Z,16.68
2023-04-16T11:48:56.346Z,16.81
2023-04-16T11:51:24.312Z,16.79
2023-04-16T11:53:56.362Z,16.84
2023-04-16T11:56:24.179Z,16.92
2023-04-16T11:58:51.843Z,16.98
2023-04-16T12:01:19.504Z,17.08
2023-04-16T12:03:49.973Z,17.04
2023-04-16T12:06:17.797Z,17.00
2023-04-16T12:08:45.565Z,16.96
2023-04-16T12:11:13.231Z,16.98
2023-04-16T12:13:40.891Z,17.02
2023-04-16T12:16:08.653Z,17.09
2023-04-16T12:18:36.928Z,17.14
2023-04-16T12:21:04.693Z,17.22
2023-04-16T12:23:32.360Z,17.20
2023-04-16T12:26:02.706Z,17.11
2023-04-16T12:28:31.390Z,17.02
2023-04-16T12:30:59.170Z,17.07
2023-04-16T12:33:26.992Z,17.12
2023-04-16T12:35:55.175Z,17.19
2023-04-16T12:38:24.617Z,17.18
2023-04-16T12:40:52.650Z,17.14
2023-04-16T12:43:20.301Z,17.12
2023-04-16T12:45:47.999Z,17.04
2023-04-16T12:48:15.846Z,16.97
2023-04-16T12:50:44.706Z,16.87
2023-04-16T12:53:12.586Z,16.87
2023-04-16T12:55:40.212Z,16.90
2023-04-16T12:58:08.978Z,16.98
2023-04-16T13:00:38.237Z,17.04
2023-04-16T13:03:06.194Z,17.14
2023-04-16T13:05:33.969Z,17.17
2023-04-16T13:08:01.633Z,17.14
2023-04-16T13:10:29.403Z,17.17
2023-04-16T13:12:57.265Z,17.22
2023-04-16T13:15:25.035Z,17.22
2023-04-16T13:17:52.762Z,17.11
2023-04-16T13:20:22.476Z,17.01
2023-04-16T13:22:52.005Z,16.99
2023-04-16T13:25:19.676Z,16.93
2023-04-16T13:27:47.328Z,16.95
2023-04-16T13:30:15.097Z,17.03
2023-04-16T13:32:42.886Z,17.14
2023-04-16T13:35:10.949Z,17.25
2023-04-16T13:37:38.700Z,17.29
2023-04-16T13:40:06.556Z,17.28
2023-04-16T13:42:34.324Z,17.30
2023-04-16T13:45:02.416Z,17.39
2023-04-16T13:47:30.382Z,17.48
2023-04-16T13:49:58.140Z,17.51
2023-04-16T13:52:25.896Z,17.44
2023-04-16T13:54:53.551Z,17.31
2023-04-16T13:57:21.313Z,17.26
2023-04-16T13:59:49.076Z,17.30
2023-04-16T14:02:16.768Z,17.33
2023-04-16T14:04:44.503Z,17.38
2023-04-16T14:07:12.165Z,17.44
2023-04-16T14:09:39.828Z,17.48
2023-04-16T14:12:07.617Z,17.50
2023-04-16T14:14:35.367Z,17.51
2023-04-16T14:17:03.531Z,17.52
2023-04-16T14:19:32.934Z,17.53
2023-04-16T14:22:00.912Z,17.48
2023-04-16T14:24:28.662Z,17.41
2023-04-16T14:26:56.326Z,17.44
2023-04-16T14:29:23.993Z,17.45
2023-04-16T14:31:51.805Z,17.42
2023-04-16T14:34:19.624Z,17.31
2023-04-16T14:36:49.326Z,17.25
2023-04-16T14:39:17.703Z,17.21
2023-04-16T14:41:45.365Z,17.19
2023-04-16T14:44:13.037Z,17.18
2023-04-16T14:46:41.308Z,17.09
2023-04-16T14:49:11.932Z,17.03
2023-04-16T14:51:40.641Z,17.04
2023-04-16T14:54:08.392Z,17.02
2023-04-16T14:56:36.355Z,17.02
2023-04-16T14:59:04.124Z,17.05
2023-04-16T15:01:32.364Z,17.08
2023-04-16T15:04:01.971Z,17.04
2023-04-16T15:06:30.450Z,17.01
2023-04-16T15:08:58.154Z,16.98
2023-04-16T15:11:25.910Z,17.00
2023-04-16T15:13:53.676Z,17.00
2023-04-16T15:16:21.704Z,16.98
2023-04-16T15:18:50.278Z,16.91
2023-04-16T15:21:18.096Z,16.92
2023-04-16T15:23:45.858Z,16.95
2023-04-16T15:26:13.624Z,16.93
2023-04-16T15:28:41.592Z,16.89
2023-04-16T15:31:09.397Z,16.79
2023-04-16T15:33:37.034Z,16.67
2023-04-16T15:36:04.788Z,16.59
2023-04-16T15:38:32.553Z,16.51
2023-04-16T15:41:01.351Z,16.47
2023-04-16T15:43:30.025Z,16.46
2023-04-16T15:45:57.943Z,16.46
2023-04-16T15:48:25.960Z,16.43
2023-04-16T15:50:53.727Z,16.43
2023-04-16T15:53:21.384Z,16.43
2023-04-16T15:55:52.678Z,16.45
2023-04-16T15:58:21.225Z,16.48
2023-04-16T16:00:50.414Z,16.50
2023-04-16T16:03:18.398Z,16.53
2023-04-16T16:05:46.554Z,16.52
2023-04-16T16:08:14.216Z,16.46
2023-04-16T16:10:42.088Z,16.44
2023-04-16T16:13:13.333Z,16.54
2023-04-16T16:15:41.614Z,16.65
2023-04-16T16:18:09.387Z,16.81
2023-04-16T16:20:37.549Z,17.04
2023-04-16T16:23:05.322Z,17.24
2023-04-16T16:25:33.076Z,17.32
2023-04-16T16:28:00.846Z,17.29
2023-04-16T16:30:28.598Z,17.29
2023-04-16T16:32:56.484Z,17.24
2023-04-16T16:35:24.641Z,17.26
2023-04-16T16:37:57.424Z,17.30
2023-04-16T16:40:25.081Z,17.38
2023-04-16T16:42:52.986Z,17.54
2023-04-16T16:45:20.818Z,17.67
2023-04-16T16:47:49.242Z,17.70
2023-04-16T16:50:17.159Z,17.68
2023-04-16T16:52:44.928Z,17.60
2023-04-16T16:55:12.700Z,17.49
2023-04-16T16:57:40.461Z,17.37
2023-04-16T17:00:19.918Z,17.23
2023-04-16T17:02:48.836Z,16.97
2023-04-16T17:05:16.857Z,16.74
2023-04-16T17:07:44.630Z,16.51
2023-04-16T17:10:13.508Z,16.33
2023-04-16T17:12:41.190Z,16.18
2023-04-16T17:15:08.936Z,16.08
2023-04-16T17:17:37.059Z,16.01
2023-04-16T17:20:10.205Z,15.91
2023-04-16T17:22:37.964Z,15.81
2023-04-16T17:25:05.728Z,15.70
2023-04-16T17:27:34.525Z,15.60
2023-04-16T17:30:02.290Z,15.51
2023-04-16T17:32:30.295Z,15.41
2023-04-16T17:34:58.123Z,15.33
2023-04-16T17:37:26.186Z,15.25
2023-04-16T17:39:53.956Z,15.14
2023-04-16T17:42:22.034Z,15.05
2023-04-16T17:44:49.888Z,14.95
2023-04-16T17:47:17.657Z,14.87
2023-04-16T17:49:45.620Z,14.77
2023-04-16T17:52:13.391Z,14.69
2023-04-16T17:54:41.253Z,14.60
2023-04-16T17:57:09.117Z,14.53
2023-04-16T17:59:37.291Z,14.45
2023-04-16T18:02:05.188Z,14.38
2023-04-16T18:04:33.311Z,14.30
2023-04-16T18:07:01.297Z,14.23
2023-04-16T18:09:29.269Z,14.16
2023-04-16T18:11:59.695Z,14.09
2023-04-16T18:14:27.774Z,14.03
2023-04-16T18:16:55.432Z,13.98
2023-04-16T18:19:23.101Z,13.93
2023-04-16T18:21:50.852Z,13.86
2023-04-16T18:24:18.523Z,13.79
2023-04-16T18:26:47.113Z,13.71
2023-04-16T18:29:15.220Z,13.65
2023-04-16T18:31:43.527Z,13.59
2023-04-16T18:34:12.547Z,13.53
2023-04-16T18:36:40.623Z,13.48
2023-04-16T18:39:08.479Z,13.42
2023-04-16T18:41:36.751Z,13.35
2023-04-16T18:44:04.511Z,13.28
2023-04-16T18:46:32.333Z,13.21
2023-04-16T18:49:00.357Z,13.14
2023-04-16T18:51:28.118Z,13.10
2023-04-16T18:53:55.788Z,13.05
2023-04-16T18:56:23.437Z,13.01
2023-04-16T18:58:51.200Z,12.97
2023-04-16T19:01:18.923Z,12.94
2023-04-16T19:03:46.747Z,12.93
2023-04-16T19:06:14.504Z,12.91
2023-04-16T19:08:42.167Z,12.87
2023-04-16T19:11:09.920Z,12.80
2023-04-16T19:13:38.814Z,12.73
2023-04-16T19:16:11.438Z,12.68
2023-04-16T19:18:39.774Z,12.65
2023-04-16T19:21:07.562Z,12.64
2023-04-16T19:23:35.402Z,12.63
2023-04-16T19:26:03.062Z,12.60
2023-04-16T19:28:32.872Z,12.52
2023-04-16T19:31:00.743Z,12.47
2023-04-16T19:33:28.709Z,12.42
2023-04-16T19:35:56.473Z,12.36
2023-04-16T19:38:24.238Z,12.33
2023-04-16T19:40:52.004Z,12.31
2023-04-16T19:43:19.665Z,12.29
2023-04-16T19:45:47.577Z,12.29
2023-04-16T19:48:15.400Z,12.26
2023-04-16T19:50:43.123Z,12.25
2023-04-16T19:53:11.142Z,12.23
2023-04-16T19:55:38.998Z,12.22
2023-04-16T19:58:07.056Z,12.20
2023-04-16T20:00:35.346Z,12.17
2023-04-16T20:03:03.062Z,12.11
2023-04-16T20:05:30.880Z,12.10
2023-04-16T20:07:58.633Z,12.07
2023-04-16T20:10:26.810Z,12.03
2023-04-16T20:12:54.480Z,11.99
2023-04-16T20:15:22.541Z,11.95
2023-04-16T20:17:50.614Z,11.89
2023-04-16T20:20:18.485Z,11.85
2023-04-16T20:22:46.350Z,11.80
2023-04-16T20:25:14.618Z,11.74
2023-04-16T20:27:42.281Z,11.70
2023-04-16T20:30:09.943Z,11.67
2023-04-16T20:32:37.720Z,11.64
2023-04-16T20:35:10.344Z,11.62
2023-04-16T20:37:42.463Z,11.58
2023-04-16T20:40:11.093Z,11.58
2023-04-16T20:42:39.006Z,11.57
2023-04-16T20:45:07.482Z,11.58
2023-04-16T20:47:35.293Z,11.59
2023-04-16T20:50:03.222Z,11.58
2023-04-16T20:52:31.000Z,11.59
2023-04-16T20:54:58.644Z,11.60
2023-04-16T20:57:28.253Z,11.62
2023-04-16T20:59:56.029Z,11.64
2023-04-16T21:02:24.499Z,11.71
2023-04-16T21:04:53.225Z,11.74
2023-04-16T21:07:21.461Z,11.71
2023-04-16T21:09:49.225Z,11.73
2023-04-16T21:12:16.888Z,11.76
2023-04-16T21:14:44.654Z,11.78
2023-04-16T21:17:12.411Z,11.75
2023-04-16T21:19:40.493Z,11.74
2023-04-16T21:22:08.148Z,11.74
2023-04-16T21:24:36.015Z,11.72
2023-04-16T21:27:03.676Z,11.71
2023-04-16T21:29:31.466Z,11.67
2023-04-16T21:31:59.293Z,11.61
2023-04-16T21:34:27.179Z,11.56
2023-04-16T21:36:54.845Z,11.51
2023-04-16T21:39:22.503Z,11.45
2023-04-16T21:41:50.162Z,11.39
2023-04-16T21:44:17.830Z,11.34
2023-04-16T21:46:45.717Z,11.31
2023-04-16T21:49:13.884Z,11.32
2023-04-16T21:51:43.280Z,11.32
2023-04-16T21:54:11.036Z,11.27
2023-04-16T21:56:39.001Z,11.28
2023-04-16T21:59:06.661Z,11.25
2023-04-16T22:01:34.327Z,11.20
2023-04-16T22:04:02.258Z,11.19
2023-04-16T22:06:30.052Z,11.16
2023-04-16T22:08:59.049Z,11.13
2023-04-16T22:11:26.707Z,11.10
2023-04-16T22:13:57.969Z,11.07
2023-04-16T22:16:26.009Z,11.01
2023-04-16T22:18:55.221Z,10.97
2023-04-16T22:21:22.890Z,10.93
2023-04-16T22:23:51.171Z,10.96
2023-04-16T22:26:18.926Z,10.95
2023-04-16T22:28:46.789Z,10.92
2023-04-16T22:31:14.453Z,10.90
2023-04-16T22:33:42.119Z,10.88
2023-04-16T22:36:09.775Z,10.86
2023-04-16T22:38:38.971Z,10.82
2023-04-16T22:41:06.637Z,10.81
2023-04-16T22:43:37.180Z,10.78
2023-04-16T22:46:05.037Z,10.73
2023-04-16T22:48:32.895Z,10.70
2023-04-16T22:51:00.770Z,10.70
2023-04-16T22:53:28.628Z,10.74
2023-04-16T22:55:56.597Z,10.73
2023-04-16T22:58:24.259Z,10.69
2023-04-16T23:00:56.876Z,10.65
2023-04-16T23:03:24.688Z,10.64
2023-04-16T23:05:52.464Z,10.62
2023-04-16T23:08:20.228Z,10.60
2023-04-16T23:10:47.892Z,10.57
2023-04-16T23:13:15.868Z,10.53
2023-04-16T23:15:43.979Z,10.48
2023-04-16T23:18:12.254Z,10.44
2023-04-16T23:20:40.077Z,10.42
2023-04-16T23:23:07.727Z,10.45
2023-04-16T23:25:35.498Z,10.44
2023-04-16T23:28:03.571Z,10.39
2023-04-16T23:30:31.239Z,10.37
2023-04-16T23:32:58.932Z,10.36
2023-04-16T23:35:26.771Z,10.34
2023-04-16T23:37:54.422Z,10.31
2023-04-16T23:40:22.085Z,10.27
2023-04-16T23:42:49.722Z,10.21
2023-04-16T23:45:17.421Z,10.16
2023-04-16T23:47:45.511Z,10.16
2023-04-16T23:50:13.350Z,10.21
2023-04-16T23:52:41.112Z,10.20
2023-04-16T23:55:08.773Z,10.18
2023-04-16T23:57:36.434Z,10.20
